Time;durP1;ratioP1;P1;durP2;ratioP2;P2;SDS_P1;SDS_P2;PMS_P1;PMS_P2;Temp;Humidity;BMP_temperature;BMP_pressure;BME280_temperature;BME280_humidity;BME280_pressure;Samples;Min_cycle;Max_cycle;Signal;HPM_P1;HPM_P2
2022/09/01 00:02:15;;;;;;;25.10;5.30;;;20.40;49.80;;;;;;5033415;28;20084;-71
2022/09/01 00:04:44;;;;;;;13.15;4.40;;;20.40;49.60;;;;;;5042969;28;20112;-71
2022/09/01 00:07:12;;;;;;;29.73;6.50;;;20.40;49.60;;;;;;5038063;28;20030;-71
2022/09/01 00:09:39;;;;;;;21.70;4.88;;;20.40;49.40;;;;;;5037750;28;20650;-73
2022/09/01 00:12:08;;;;;;;19.70;6.22;;;20.40;50.10;;;;;;5034909;28;20429;-72
2022/09/01 00:14:39;;;;;;;16.98;5.82;;;20.40;49.90;;;;;;5042622;28;20381;-72
2022/09/01 00:17:09;;;;;;;19.33;5.55;;;20.30;50.00;;;;;;5037692;28;20028;-73
2022/09/01 00:19:36;;;;;;;20.25;5.00;;;20.30;50.10;;;;;;5038226;28;20038;-72
2022/09/01 00:22:04;;;;;;;21.65;4.88;;;20.30;50.00;;;;;;5036491;28;20022;-72
2022/09/01 00:24:31;;;;;;;19.73;6.82;;;20.40;50.00;;;;;;5036355;28;20021;-72
2022/09/01 00:26:57;;;;;;;26.65;5.93;;;20.30;49.50;;;;;;5033714;28;20025;-72
2022/09/01 00:29:25;;;;;;;27.65;6.72;;;20.30;49.10;;;;;;5036026;28;20116;-72
2022/09/01 00:31:52;;;;;;;27.95;6.88;;;20.30;49.10;;;;;;5033155;28;20017;-72
2022/09/01 00:34:19;;;;;;;22.70;6.80;;;20.30;48.80;;;;;;5036655;28;20034;-72
2022/09/01 00:36:46;;;;;;;22.95;6.25;;;20.30;48.90;;;;;;5031804;28;20134;-72
2022/09/01 00:39:13;;;;;;;35.30;7.30;;;20.30;48.90;;;;;;5031995;28;20037;-72
2022/09/01 00:41:43;;;;;;;17.98;5.90;;;20.30;48.70;;;;;;5040559;28;20043;-72
2022/09/01 00:44:15;;;;;;;37.38;8.85;;;20.30;48.40;;;;;;5029845;28;20029;-72
2022/09/01 00:46:45;;;;;;;40.45;6.97;;;20.30;48.10;;;;;;5034848;28;20533;-73
2022/09/01 00:49:33;;;;;;;28.30;7.63;;;20.30;48.50;;;;;;5033555;28;20033;-72
2022/09/01 00:52:40;;;;;;;32.97;6.05;;;20.30;48.60;;;;;;5032651;28;20380;-72
2022/09/01 00:55:09;;;;;;;;;;;20.30;48.90;;;;;;5036620;28;20049;-72
2022/09/01 00:57:35;;;;;;;24.63;6.45;;;20.30;48.80;;;;;;5031333;28;20310;-71
2022/09/01 01:00:10;;;;;;;25.50;6.80;;;20.30;48.80;;;;;;5035568;28;20041;-72
2022/09/01 01:02:39;;;;;;;22.98;6.60;;;20.30;48.90;;;;;;5040512;28;20016;-72
2022/09/01 01:05:07;;;;;;;30.23;8.15;;;20.30;49.30;;;;;;5032510;28;20048;-71
2022/09/01 01:07:37;;;;;;;36.75;7.63;;;20.30;49.20;;;;;;5034005;28;20396;-71
2022/09/01 01:10:06;;;;;;;26.45;7.63;;;20.30;49.00;;;;;;5028124;28;20040;-71
2022/09/01 01:12:36;;;;;;;34.88;9.48;;;20.30;49.20;;;;;;5030695;28;20025;-72
2022/09/01 01:15:05;;;;;;;23.85;7.20;;;20.30;49.20;;;;;;5035944;28;20120;-72
2022/09/01 01:17:32;;;;;;;24.40;6.05;;;20.30;49.30;;;;;;5032076;28;20031;-72
2022/09/01 01:23:07;;;;;;;32.72;8.13;;;20.30;49.70;;;;;;5034126;28;20450;-73
2022/09/01 01:25:45;;;;;;;28.95;7.28;;;20.30;50.00;;;;;;5033173;28;20480;-72
2022/09/01 01:28:17;;;;;;;33.95;9.18;;;20.30;50.50;;;;;;5031359;28;20028;-73
2022/09/01 01:30:51;;;;;;;26.50;7.28;;;20.30;50.60;;;;;;5032017;28;20034;-72
2022/09/01 01:33:23;;;;;;;34.50;9.13;;;20.20;50.60;;;;;;5032020;28;20099;-73
2022/09/01 01:35:51;;;;;;;31.08;8.23;;;20.20;50.90;;;;;;5035204;28;20703;-73
2022/09/01 01:38:21;;;;;;;34.13;7.43;;;20.20;51.00;;;;;;5030303;28;20036;-73
2022/09/01 01:40:48;;;;;;;35.80;8.70;;;20.20;51.20;;;;;;5038474;28;20064;-73
2022/09/01 01:43:18;;;;;;;34.75;7.25;;;20.20;51.30;;;;;;5030224;28;20032;-72
2022/09/01 01:45:47;;;;;;;33.67;8.20;;;20.20;51.40;;;;;;5033078;28;20117;-72
2022/09/01 01:48:23;;;;;;;40.25;8.85;;;20.20;51.50;;;;;;5033066;28;20014;-72
2022/09/01 01:50:53;;;;;;;34.35;8.63;;;20.20;51.60;;;;;;5032647;28;20573;-72
2022/09/01 01:53:21;;;;;;;30.83;8.18;;;20.10;51.70;;;;;;5029857;28;20026;-72
2022/09/01 01:55:49;;;;;;;41.45;7.97;;;20.00;51.60;;;;;;5032804;28;20030;-72
2022/09/01 01:58:20;;;;;;;30.25;9.80;;;20.00;51.50;;;;;;5029526;28;20037;-72
2022/09/01 02:00:50;;;;;;;42.50;11.25;;;20.00;51.50;;;;;;5032505;28;20037;-72
2022/09/01 02:03:20;;;;;;;47.70;12.70;;;20.00;51.70;;;;;;5032598;28;20104;-72
2022/09/01 02:05:49;;;;;;;39.60;10.52;;;19.90;51.90;;;;;;5032539;28;20025;-72
2022/09/01 02:08:19;;;;;;;44.38;11.18;;;19.90;51.80;;;;;;5028669;28;20014;-73
2022/09/01 02:10:48;;;;;;;44.40;9.43;;;19.90;52.00;;;;;;5035584;28;20033;-72
2022/09/01 02:13:17;;;;;;;46.47;9.43;;;19.90;52.20;;;;;;5035144;28;20499;-72
2022/09/01 02:15:52;;;;;;;43.42;9.45;;;19.80;52.00;;;;;;5037782;28;20071;-73
2022/09/01 02:18:27;;;;;;;44.13;11.57;;;19.90;51.80;;;;;;5029203;28;20025;-72
2022/09/01 02:20:57;;;;;;;42.47;10.93;;;19.80;51.80;;;;;;5037572;28;20088;-72
2022/09/01 02:23:24;;;;;;;41.33;9.93;;;19.80;51.90;;;;;;5031439;28;20846;-72
2022/09/01 02:25:59;;;;;;;31.92;8.05;;;19.80;51.90;;;;;;5031376;28;20025;-72
2022/09/01 02:28:27;;;;;;;44.92;10.50;;;19.80;52.00;;;;;;5028955;28;20432;-72
2022/09/01 02:30:54;;;;;;;49.97;10.18;;;19.80;52.10;;;;;;5025144;28;20033;-72
2022/09/01 02:33:21;;;;;;;47.50;10.65;;;19.80;52.20;;;;;;5034596;28;20423;-71
2022/09/01 02:35:51;;;;;;;54.65;21.10;;;19.80;52.80;;;;;;5032287;28;20111;-72
2022/09/01 02:38:19;;;;;;;54.05;26.92;;;19.80;52.90;;;;;;5035560;28;20104;-72
2022/09/01 02:40:47;;;;;;;52.63;21.38;;;19.80;53.00;;;;;;5029755;28;20095;-72
2022/09/01 02:43:18;;;;;;;37.83;16.73;;;19.80;52.80;;;;;;5034733;28;20501;-72
2022/09/01 02:45:45;;;;;;;42.63;13.50;;;19.80;52.70;;;;;;5034839;28;20017;-72
2022/09/01 02:48:12;;;;;;;47.55;10.70;;;19.70;52.50;;;;;;5030541;28;20561;-72
2022/09/01 02:50:40;;;;;;;43.08;10.85;;;19.70;52.50;;;;;;5031684;28;20780;-72
2022/09/01 02:53:10;;;;;;;38.45;9.70;;;19.70;52.60;;;;;;5028336;28;20033;-72
2022/09/01 02:55:38;;;;;;;34.03;10.32;;;19.70;52.50;;;;;;5034167;28;20474;-72
2022/09/01 02:58:12;;;;;;;37.00;11.13;;;19.70;52.50;;;;;;5028001;28;20461;-72
2022/09/01 03:00:39;;;;;;;41.17;9.63;;;19.70;52.50;;;;;;5027908;28;20059;-72
2022/09/01 03:03:06;;;;;;;37.00;8.30;;;19.70;52.40;;;;;;5031492;28;20121;-72
2022/09/01 03:05:38;;;;;;;29.77;7.68;;;19.70;52.40;;;;;;5033761;28;20519;-71
2022/09/01 03:08:10;;;;;;;32.90;8.57;;;19.60;52.30;;;;;;5026359;28;20042;-72
2022/09/01 03:10:40;;;;;;;33.75;9.23;;;19.60;52.40;;;;;;5026114;28;20045;-72
2022/09/01 03:13:10;;;;;;;44.15;11.43;;;19.60;52.30;;;;;;5027903;28;20053;-72
2022/09/01 03:15:38;;;;;;;40.25;8.48;;;19.60;52.30;;;;;;5030582;28;20581;-72
2022/09/01 03:18:07;;;;;;;46.58;7.70;;;19.60;52.40;;;;;;5028417;28;20052;-72
2022/09/01 03:20:36;;;;;;;39.97;8.90;;;19.60;52.50;;;;;;5028103;28;20069;-72
2022/09/01 03:23:06;;;;;;;37.88;11.52;;;19.60;52.60;;;;;;5032459;28;20025;-72
2022/09/01 03:25:34;;;;;;;43.72;9.25;;;19.50;52.60;;;;;;5035812;28;20040;-72
2022/09/01 03:28:01;;;;;;;46.72;9.75;;;19.50;52.60;;;;;;5026756;28;20018;-72
2022/09/01 03:30:35;;;;;;;47.17;9.32;;;19.50;52.60;;;;;;5034021;28;20029;-72
2022/09/01 03:33:02;;;;;;;38.38;11.05;;;19.50;52.70;;;;;;5028934;28;20056;-72
2022/09/01 03:36:17;;;;;;;40.20;10.00;;;19.50;52.70;;;;;;5035686;28;20048;-72
2022/09/01 03:39:02;;;;;;;56.53;10.15;;;19.40;52.30;;;;;;5037913;28;20155;-73
2022/09/01 03:41:29;;;;;;;48.92;7.85;;;19.40;52.30;;;;;;5036512;28;20021;-72
2022/09/01 03:43:57;;;;;;;39.78;8.18;;;19.40;52.40;;;;;;5039817;28;20047;-73
2022/09/01 03:46:25;;;;;;;38.72;9.40;;;19.30;52.30;;;;;;5037764;28;20555;-72
2022/09/01 03:48:57;;;;;;;51.15;10.15;;;19.30;52.70;;;;;;5034718;28;20033;-72
2022/09/01 03:51:25;;;;;;;41.75;9.40;;;19.30;52.80;;;;;;5029969;28;20026;-72
2022/09/01 03:53:53;;;;;;;34.55;7.72;;;19.30;52.90;;;;;;5038040;28;20027;-73
2022/09/01 03:56:21;;;;;;;35.55;8.82;;;19.30;53.10;;;;;;5036863;28;20033;-73
2022/09/01 03:58:47;;;;;;;40.35;7.80;;;19.20;53.30;;;;;;5034203;28;20388;-72
2022/09/01 04:01:14;;;;;;;37.78;9.93;;;19.20;53.50;;;;;;5036534;28;20038;-71
2022/09/01 04:03:45;;;;;;;35.55;9.68;;;19.20;53.50;;;;;;5035932;28;20516;-71
2022/09/01 04:06:12;;;;;;;41.22;11.82;;;19.20;53.60;;;;;;5037015;28;20030;-71
2022/09/01 04:08:39;;;;;;;34.83;10.98;;;19.20;54.00;;;;;;5038296;28;20026;-73
2022/09/01 04:11:22;;;;;;;49.00;13.98;;;19.20;53.80;;;;;;5032800;28;20025;-71
2022/09/01 04:13:49;;;;;;;43.22;11.52;;;19.10;53.50;;;;;;5035007;28;20041;-70
2022/09/01 04:19:19;;;;;;;38.85;8.82;;;19.10;55.20;;;;;;5029983;28;20516;-70
2022/09/01 04:22:06;;;;;;;28.10;8.10;;;19.10;55.10;;;;;;5030940;28;20498;-69
2022/09/01 04:24:33;;;;;;;38.60;9.43;;;19.10;55.30;;;;;;5032084;28;20037;-71
2022/09/01 04:27:01;;;;;;;35.42;9.52;;;19.10;55.50;;;;;;5029773;28;20022;-71
2022/09/01 04:29:29;;;;;;;44.65;12.73;;;19.10;55.60;;;;;;5027363;28;20365;-69
2022/09/01 04:32:00;;;;;;;47.00;17.75;;;19.10;56.30;;;;;;5035667;28;20030;-69
2022/09/01 04:34:29;;;;;;;41.22;12.65;;;19.10;56.80;;;;;;5029516;28;20082;-70
2022/09/01 04:36:57;;;;;;;45.53;11.80;;;19.00;57.10;;;;;;5029791;28;20046;-70
2022/09/01 04:39:24;;;;;;;38.00;9.98;;;19.00;57.70;;;;;;5036085;28;20045;-70
2022/09/01 04:41:51;;;;;;;37.72;7.93;;;19.00;58.10;;;;;;5037154;28;20024;-70
2022/09/01 04:44:18;;;;;;;52.38;10.65;;;19.00;58.00;;;;;;5031793;28;20140;-70
2022/09/01 04:46:47;;;;;;;41.00;8.88;;;19.00;58.10;;;;;;5032284;28;20106;-70
2022/09/01 04:49:18;;;;;;;38.22;9.80;;;19.00;59.10;;;;;;5035543;28;20765;-70
2022/09/01 04:51:47;;;;;;;38.70;9.85;;;19.00;58.70;;;;;;5035617;28;20534;-70
2022/09/01 04:54:15;;;;;;;39.17;8.77;;;19.00;58.60;;;;;;5033028;28;20387;-70
2022/09/01 04:56:51;;;;;;;49.15;9.27;;;19.00;58.40;;;;;;5034663;28;20442;-69
2022/09/01 04:59:20;;;;;;;41.10;9.02;;;19.00;58.40;;;;;;5033742;28;20146;-71
2022/09/01 05:01:49;;;;;;;33.50;9.75;;;18.90;58.90;;;;;;5033096;28;20029;-71
2022/09/01 05:04:26;;;;;;;40.38;8.73;;;18.90;59.20;;;;;;5037415;28;20116;-72
2022/09/01 05:06:59;;;;;;;34.00;8.10;;;19.00;59.80;;;;;;5042142;28;20036;-72
2022/09/01 05:09:28;;;;;;;25.63;9.10;;;19.00;61.70;;;;;;5033571;28;20508;-72
2022/09/01 05:11:57;;;;;;;30.63;6.50;;;19.00;62.40;;;;;;5048178;28;20045;-72
2022/09/01 05:14:24;;;;;;;26.52;7.28;;;18.90;63.60;;;;;;5036050;28;20022;-71
2022/09/01 05:16:57;;;;;;;39.65;8.60;;;18.90;64.10;;;;;;5029939;28;20040;-70
2022/09/01 05:19:27;;;;;;;28.88;7.20;;;19.00;65.20;;;;;;5031485;28;20513;-72
2022/09/01 05:21:57;;;;;;;31.98;7.72;;;19.00;67.30;;;;;;5038918;28;20035;-70
2022/09/01 05:24:29;;;;;;;35.53;10.40;;;19.00;69.00;;;;;;5031733;28;20033;-72
2022/09/01 05:26:56;;;;;;;30.75;8.55;;;19.00;69.20;;;;;;5030787;28;21771;-72
2022/09/01 05:29:23;;;;;;;33.17;8.23;;;19.00;69.30;;;;;;5034557;28;20024;-72
2022/09/01 05:31:51;;;;;;;34.88;8.68;;;18.90;70.20;;;;;;5030622;28;20028;-72
2022/09/01 05:34:21;;;;;;;44.10;8.55;;;18.90;70.40;;;;;;5032597;28;20041;-72
2022/09/01 05:36:49;;;;;;;44.83;11.07;;;19.00;70.80;;;;;;5040002;28;20053;-72
2022/09/01 05:39:16;;;;;;;30.30;8.90;;;19.00;71.20;;;;;;5032955;28;20101;-72
2022/09/01 05:41:44;;;;;;;32.03;8.55;;;19.00;71.30;;;;;;5034984;28;20021;-72
2022/09/01 05:44:12;;;;;;;28.77;6.63;;;19.00;71.40;;;;;;5037729;28;20353;-73
2022/09/01 05:46:41;;;;;;;35.15;7.90;;;19.00;71.50;;;;;;5036697;28;20092;-72
2022/09/01 05:49:12;;;;;;;37.72;13.32;;;19.00;71.40;;;;;;5030209;28;20037;-72
2022/09/01 05:51:42;;;;;;;33.17;8.05;;;19.00;71.20;;;;;;5029284;28;20529;-72
2022/09/01 05:54:10;;;;;;;41.30;10.60;;;19.00;71.50;;;;;;5034631;28;20020;-72
2022/09/01 05:56:39;;;;;;;33.15;7.97;;;19.00;71.40;;;;;;5027879;28;20029;-72
2022/09/01 05:59:06;;;;;;;35.47;8.05;;;19.00;71.10;;;;;;5026835;28;20032;-72
2022/09/01 06:01:38;;;;;;;40.65;10.48;;;19.00;70.90;;;;;;5032665;28;20025;-72
2022/09/01 06:04:05;;;;;;;36.38;8.27;;;19.10;70.80;;;;;;5032528;28;20354;-72
2022/09/01 06:06:43;;;;;;;39.50;7.90;;;19.10;71.00;;;;;;5032926;28;20029;-72
2022/09/01 06:09:10;;;;;;;33.45;6.55;;;19.10;70.80;;;;;;5032548;28;20079;-72
2022/09/01 06:11:37;;;;;;;36.85;7.32;;;19.10;70.40;;;;;;5031820;28;20044;-72
2022/09/01 06:14:04;;;;;;;35.17;9.13;;;19.10;70.20;;;;;;5038352;28;20061;-72
2022/09/01 06:16:32;;;;;;;30.98;8.35;;;19.10;70.60;;;;;;5027140;28;20029;-72
2022/09/01 06:18:58;;;;;;;27.65;7.70;;;19.10;71.10;;;;;;5034249;28;20029;-72
2022/09/01 06:21:27;;;;;;;30.63;8.52;;;19.10;70.80;;;;;;5025115;28;20044;-72
2022/09/01 06:23:57;;;;;;;35.42;9.18;;;19.10;71.60;;;;;;5030901;28;20088;-72
2022/09/01 06:26:27;;;;;;;46.50;10.45;;;19.10;72.40;;;;;;5033347;28;20088;-72
2022/09/01 06:28:57;;;;;;;29.58;8.98;;;19.20;73.20;;;;;;5036511;28;20502;-73
2022/09/01 06:31:32;;;;;;;40.05;8.43;;;19.20;73.20;;;;;;5033860;28;20029;-72
2022/09/01 06:34:02;;;;;;;34.95;7.20;;;19.20;72.80;;;;;;5028311;28;20109;-72
2022/09/01 06:36:32;;;;;;;26.25;6.05;;;19.20;72.30;;;;;;5026589;28;20424;-72
2022/09/01 06:39:01;;;;;;;32.65;7.60;;;19.20;71.70;;;;;;5028238;28;20512;-70
2022/09/01 06:41:29;;;;;;;30.67;7.65;;;19.20;71.10;;;;;;5037314;28;20104;-72
2022/09/01 06:43:56;;;;;;;27.52;5.20;;;19.20;70.50;;;;;;5035535;28;20059;-72
2022/09/01 06:46:26;;;;;;;16.55;5.32;;;19.20;70.10;;;;;;5039525;28;20630;-72
2022/09/01 06:48:55;;;;;;;35.28;7.43;;;19.20;70.40;;;;;;5039198;28;20024;-72
2022/09/01 06:51:23;;;;;;;38.45;8.30;;;19.20;70.80;;;;;;5033768;28;20025;-72
2022/09/01 06:53:55;;;;;;;28.10;7.00;;;19.20;70.90;;;;;;5034566;28;20037;-72
2022/09/01 06:56:23;;;;;;;24.42;6.10;;;19.20;70.90;;;;;;5032802;28;20029;-72
2022/09/01 06:58:52;;;;;;;24.45;6.18;;;19.30;71.20;;;;;;5030153;28;20667;-72
2022/09/01 07:01:21;;;;;;;31.45;7.85;;;19.30;70.90;;;;;;5031328;28;20024;-72
2022/09/01 07:03:51;;;;;;;25.38;6.57;;;19.30;70.60;;;;;;5037775;28;20032;-72
2022/09/01 07:06:23;;;;;;;29.15;7.28;;;19.30;70.90;;;;;;5032062;28;20393;-72
2022/09/01 07:08:49;;;;;;;23.23;6.80;;;19.30;70.40;;;;;;5026415;28;20018;-72
2022/09/01 07:11:24;;;;;;;21.73;6.22;;;19.30;70.20;;;;;;5032142;28;20029;-72
2022/09/01 07:13:54;;;;;;;29.67;6.15;;;19.40;70.30;;;;;;5036634;28;20559;-72
2022/09/01 07:16:24;;;;;;;23.48;6.45;;;19.40;70.00;;;;;;5038488;28;20109;-72
2022/09/01 07:18:52;;;;;;;24.42;5.75;;;19.40;69.80;;;;;;5028668;28;20040;-72
2022/09/01 07:21:19;;;;;;;32.13;7.57;;;19.50;69.70;;;;;;5031598;28;20018;-72
2022/09/01 07:23:46;;;;;;;29.80;7.82;;;19.50;69.60;;;;;;5030235;28;20045;-72
2022/09/01 07:26:18;;;;;;;23.90;7.28;;;19.50;69.80;;;;;;5033749;28;20537;-72
2022/09/01 07:28:46;;;;;;;32.00;8.30;;;19.50;70.30;;;;;;5031494;28;20029;-72
2022/09/01 07:31:27;;;;;;;38.35;7.60;;;19.50;70.00;;;;;;5027701;28;20096;-72
2022/09/01 07:33:57;;;;;;;31.23;8.30;;;19.50;70.00;;;;;;5031670;28;20025;-72
2022/09/01 07:36:24;;;;;;;30.40;8.38;;;19.60;70.30;;;;;;5031244;28;20104;-72
2022/09/01 07:38:52;;;;;;;36.13;9.82;;;19.60;70.30;;;;;;5033131;28;20128;-72
2022/09/01 07:41:24;;;;;;;42.95;8.02;;;19.60;70.30;;;;;;5032600;28;20435;-72
2022/09/01 07:43:51;;;;;;;33.90;8.70;;;19.60;70.30;;;;;;5033485;28;20055;-72
2022/09/01 07:46:19;;;;;;;39.40;9.70;;;19.60;70.40;;;;;;5035101;28;20126;-72
2022/09/01 07:48:47;;;;;;;30.38;8.77;;;19.70;70.70;;;;;;5031629;28;20025;-72
2022/09/01 07:51:17;;;;;;;36.08;7.07;;;19.60;70.70;;;;;;5030604;28;20026;-72
2022/09/01 07:53:47;;;;;;;24.98;7.03;;;19.60;70.60;;;;;;5033089;28;20032;-72
2022/09/01 07:56:17;;;;;;;39.88;8.02;;;19.60;70.40;;;;;;5037482;28;20112;-72
2022/09/01 07:58:45;;;;;;;28.05;7.40;;;19.60;70.60;;;;;;5027210;28;20038;-72
2022/09/01 08:01:17;;;;;;;25.77;7.50;;;19.70;70.60;;;;;;5029354;28;20410;-72
2022/09/01 08:03:46;;;;;;;32.28;8.85;;;19.70;70.60;;;;;;5034483;28;20034;-72
2022/09/01 08:06:18;;;;;;;34.15;7.97;;;19.70;70.60;;;;;;5032083;28;20080;-72
2022/09/01 08:08:46;;;;;;;31.58;9.05;;;19.70;70.70;;;;;;5032980;28;20033;-72
2022/09/01 08:11:18;;;;;;;30.00;9.68;;;19.80;70.70;;;;;;5032057;28;20056;-72
2022/09/01 08:13:46;;;;;;;25.55;7.95;;;19.80;70.70;;;;;;5029811;28;20034;-72
2022/09/01 08:16:13;;;;;;;30.33;8.80;;;19.80;70.60;;;;;;5034324;28;20077;-72
2022/09/01 08:18:40;;;;;;;34.15;10.27;;;19.80;70.50;;;;;;5031275;28;20423;-72
2022/09/01 08:21:11;;;;;;;32.70;9.40;;;19.80;70.50;;;;;;5036398;28;20024;-72
2022/09/01 08:23:38;;;;;;;21.80;9.05;;;19.90;70.60;;;;;;5030144;28;20030;-71
2022/09/01 08:26:13;;;;;;;51.90;9.45;;;19.90;70.60;;;;;;5038974;28;20029;-71
2022/09/01 08:28:39;;;;;;;;;;;19.90;70.70;;;;;;5030246;28;20037;-71
2022/09/01 08:31:14;;;;;;;33.95;7.13;;;20.00;70.60;;;;;;5031706;28;20384;-72
2022/09/01 08:33:42;;;;;;;32.47;9.65;;;20.00;70.40;;;;;;5041602;28;20060;-71
2022/09/01 08:36:11;;;;;;;29.73;9.10;;;20.00;70.20;;;;;;5032784;28;20037;-71
2022/09/01 08:38:39;;;;;;;32.13;8.98;;;20.10;70.20;;;;;;5028994;28;20053;-72
2022/09/01 08:41:35;;;;;;;39.17;8.30;;;20.10;70.10;;;;;;5037073;28;20056;-72
2022/09/01 08:44:32;;;;;;;36.42;8.45;;;20.10;69.90;;;;;;5026075;28;20037;-72
2022/09/01 08:47:09;;;;;;;27.83;6.38;;;20.20;69.70;;;;;;5032351;28;20036;-72
2022/09/01 08:49:39;;;;;;;36.05;9.25;;;20.30;69.50;;;;;;5038416;28;20577;-72
2022/09/01 08:52:27;;;;;;;37.10;7.82;;;20.30;69.30;;;;;;5034161;28;20108;-72
2022/09/01 08:55:04;;;;;;;27.85;7.07;;;20.30;69.10;;;;;;5027317;28;20032;-72
2022/09/01 08:57:35;;;;;;;26.08;10.13;;;20.30;68.90;;;;;;5031105;28;20064;-72
2022/09/01 09:00:02;;;;;;;28.10;8.18;;;20.40;68.90;;;;;;5032405;28;20034;-72
2022/09/01 09:03:01;;;;;;;34.95;8.35;;;20.40;69.00;;;;;;5034262;28;20564;-72
2022/09/01 09:05:47;;;;;;;33.72;8.23;;;20.50;69.00;;;;;;5035203;28;20025;-71
2022/09/01 09:08:36;;;;;;;29.33;8.02;;;20.50;68.80;;;;;;5032877;28;20037;-72
2022/09/01 09:11:02;;;;;;;29.98;7.63;;;20.60;68.90;;;;;;5029076;28;20028;-72
2022/09/01 09:13:35;;;;;;;34.67;8.43;;;20.60;68.60;;;;;;5036429;28;20028;-71
2022/09/01 09:16:09;;;;;;;28.83;8.82;;;20.70;68.70;;;;;;5034398;28;20025;-72
2022/09/01 09:18:56;;;;;;;28.95;8.55;;;20.70;68.60;;;;;;5034921;28;20496;-72
2022/09/01 09:21:44;;;;;;;37.45;8.23;;;20.80;68.80;;;;;;5027337;28;20042;-72
2022/09/01 09:24:46;;;;;;;55.25;11.52;;;20.90;69.10;;;;;;5028868;28;20520;-72
2022/09/01 09:27:31;;;;;;;48.33;10.80;;;20.90;69.60;;;;;;5036535;28;20033;-71
2022/09/01 09:30:01;;;;;;;38.08;11.23;;;20.90;70.50;;;;;;5036317;28;20017;-71
2022/09/01 09:32:46;;;;;;;45.25;10.23;;;20.90;70.60;;;;;;5030216;28;20017;-72
2022/09/01 09:35:32;;;;;;;32.70;9.95;;;20.90;70.20;;;;;;5033186;28;20045;-72
2022/09/01 09:38:31;;;;;;;;;;;20.90;69.70;;;;;;5028000;28;20025;-71
2022/09/01 09:41:21;;;;;;;43.65;8.90;;;20.90;69.60;;;;;;5028913;28;19971;-72
2022/09/01 09:44:15;;;;;;;35.38;11.68;;;20.90;69.40;;;;;;5029935;28;20046;-71
2022/09/01 09:46:44;;;;;;;55.50;11.85;;;20.80;69.10;;;;;;5037562;28;20021;-72
2022/09/01 09:49:30;;;;;;;40.80;11.90;;;20.80;68.90;;;;;;5032851;28;20805;-72
2022/09/01 09:52:09;;;;;;;;;;;20.80;68.70;;;;;;5033122;28;20036;-71
2022/09/01 09:54:39;;;;;;;51.47;9.57;;;20.80;69.30;;;;;;5034066;28;20012;-72
2022/09/01 09:57:08;;;;;;;41.40;9.80;;;20.80;69.60;;;;;;5032924;28;20102;-72
2022/09/01 10:00:21;;;;;;;48.03;10.02;;;20.80;69.50;;;;;;5031785;28;20480;-72
2022/09/01 10:02:57;;;;;;;40.53;8.30;;;20.80;69.50;;;;;;5035703;28;20030;-71
2022/09/01 10:05:50;;;;;;;40.50;9.30;;;20.80;69.50;;;;;;5033279;28;20053;-71
2022/09/01 10:08:26;;;;;;;31.50;8.57;;;20.90;69.50;;;;;;5032041;28;20384;-71
2022/09/01 10:10:53;;;;;;;50.55;10.70;;;21.00;69.40;;;;;;5031840;28;20048;-72
2022/09/01 10:13:22;;;;;;;40.15;9.50;;;21.00;69.20;;;;;;5036585;28;20136;-72
2022/09/01 10:16:01;;;;;;;32.67;8.48;;;21.10;69.40;;;;;;5033140;28;20026;-71
2022/09/01 10:18:43;;;;;;;42.85;10.23;;;21.10;69.20;;;;;;5033905;28;20029;-72
2022/09/01 10:21:10;;;;;;;33.83;8.65;;;21.10;68.90;;;;;;5039223;28;20026;-71
2022/09/01 10:23:37;;;;;;;39.22;10.05;;;21.10;68.70;;;;;;5032817;28;20013;-72
2022/09/01 10:26:21;;;;;;;43.03;9.52;;;21.10;68.70;;;;;;5033858;28;20029;-71
2022/09/01 10:28:52;;;;;;;39.38;9.30;;;21.20;68.80;;;;;;5032452;28;20033;-71
2022/09/01 10:31:20;;;;;;;45.50;9.18;;;21.20;68.80;;;;;;5039410;28;20025;-71
2022/09/01 10:33:48;;;;;;;38.03;9.00;;;21.20;68.40;;;;;;5029288;28;20547;-71
2022/09/01 10:36:15;;;;;;;34.92;7.60;;;21.30;68.50;;;;;;5032360;28;20133;-71
2022/09/01 10:38:43;;;;;;;35.42;8.80;;;21.30;68.50;;;;;;5035345;28;20061;-72
2022/09/01 10:41:29;;;;;;;41.22;8.85;;;21.30;68.50;;;;;;5032439;28;20455;-72
2022/09/01 10:44:09;;;;;;;33.75;9.35;;;21.40;68.40;;;;;;5025049;28;20438;-72
2022/09/01 10:46:35;;;;;;;32.33;8.07;;;21.40;68.00;;;;;;5027698;28;20026;-72
2022/09/01 10:49:11;;;;;;;36.58;8.15;;;21.40;67.70;;;;;;5032041;28;20392;-72
2022/09/01 10:51:44;;;;;;;36.33;9.15;;;21.40;67.60;;;;;;5037054;28;20041;-71
2022/09/01 10:54:39;;;;;;;31.73;8.75;;;21.40;67.40;;;;;;5029944;28;20428;-72
2022/09/01 10:57:23;;;;;;;31.80;7.82;;;21.40;67.20;;;;;;5030762;28;20024;-72
2022/09/01 10:59:49;;;;;;;33.97;8.27;;;21.50;67.10;;;;;;5034909;28;20037;-72
2022/09/01 11:02:18;;;;;;;34.22;8.32;;;21.50;67.10;;;;;;5036872;28;20519;-72
2022/09/01 11:04:45;;;;;;;42.17;9.27;;;21.50;67.50;;;;;;5035949;28;20021;-72
2022/09/01 11:07:23;;;;;;;28.58;7.28;;;21.50;67.90;;;;;;5036961;28;20033;-71
2022/09/01 11:10:20;;;;;;;31.02;7.55;;;21.50;67.90;;;;;;5034528;28;20029;-72
2022/09/01 11:13:05;;;;;;;35.55;7.53;;;21.50;67.60;;;;;;5031200;28;20036;-72
2022/09/01 11:15:41;;;;;;;31.35;7.43;;;21.60;67.60;;;;;;5038482;28;20021;-72
2022/09/01 11:18:08;;;;;;;;;;;21.60;67.50;;;;;;5027610;28;20581;-72
2022/09/01 11:20:44;;;;;;;26.42;6.43;;;21.60;67.60;;;;;;5031160;28;19917;-72
2022/09/01 11:23:10;;;;;;;;;;;21.60;67.50;;;;;;5032313;28;20453;-72
2022/09/01 11:25:42;;;;;;;34.03;9.70;;;21.60;67.30;;;;;;5036446;28;19963;-72
2022/09/01 11:28:15;;;;;;;29.27;6.30;;;21.60;67.20;;;;;;5030168;28;20104;-71
2022/09/01 11:30:53;;;;;;;28.70;6.47;;;21.60;67.30;;;;;;5030206;28;20160;-72
2022/09/01 11:33:31;;;;;;;23.48;6.45;;;21.60;67.20;;;;;;5028012;28;20029;-72
2022/09/01 11:36:04;;;;;;;34.58;8.27;;;21.60;67.30;;;;;;5026544;28;20039;-72
2022/09/01 11:38:46;;;;;;;28.40;8.55;;;21.60;67.40;;;;;;5032497;28;20157;-72
2022/09/01 11:41:22;;;;;;;32.53;6.88;;;21.60;67.60;;;;;;5030622;28;20076;-72
2022/09/01 11:43:53;;;;;;;26.13;7.50;;;21.60;67.80;;;;;;5024701;28;20049;-71
2022/09/01 11:46:33;;;;;;;30.50;8.73;;;21.60;67.80;;;;;;5028961;28;20101;-72
2022/09/01 11:49:06;;;;;;;28.27;6.15;;;21.60;67.80;;;;;;5036383;28;20026;-71
2022/09/01 11:51:47;;;;;;;26.83;5.75;;;21.60;67.70;;;;;;5029397;28;20159;-72
2022/09/01 11:54:14;;;;;;;32.13;8.70;;;21.60;67.60;;;;;;5032633;28;20030;-72
2022/09/01 11:56:41;;;;;;;33.10;8.32;;;21.60;67.60;;;;;;5036083;28;20096;-72
2022/09/01 11:59:07;;;;;;;27.42;7.65;;;21.50;67.60;;;;;;5037006;28;20115;-72
2022/09/01 12:01:37;;;;;;;28.30;7.35;;;21.50;67.80;;;;;;5035616;28;20112;-72
2022/09/01 12:04:26;;;;;;;29.88;7.70;;;21.40;67.80;;;;;;5033971;28;20022;-72
2022/09/01 12:07:00;;;;;;;39.45;10.30;;;21.40;68.10;;;;;;5033016;28;20069;-72
2022/09/01 12:09:41;;;;;;;31.88;8.10;;;21.40;68.30;;;;;;5031859;28;20030;-72
2022/09/01 12:12:28;;;;;;;31.73;7.32;;;21.40;68.20;;;;;;5031896;28;20013;-72
2022/09/01 12:15:26;;;;;;;32.45;6.43;;;21.40;67.80;;;;;;5039855;28;20033;-72
2022/09/01 12:18:07;;;;;;;33.80;6.63;;;21.40;67.90;;;;;;5036978;28;20044;-71
2022/09/01 12:20:39;;;;;;;31.83;6.32;;;21.40;67.90;;;;;;5031246;28;20048;-72
2022/09/01 12:23:34;;;;;;;31.63;9.30;;;21.40;67.90;;;;;;5033014;28;20037;-71
2022/09/01 12:26:04;;;;;;;32.17;6.88;;;21.30;67.50;;;;;;5032093;28;20432;-72
2022/09/01 12:28:34;;;;;;;22.92;7.40;;;21.30;67.10;;;;;;5039184;28;20045;-71
2022/09/01 12:31:05;;;;;;;25.30;8.32;;;21.30;67.10;;;;;;5033907;28;20060;-72
2022/09/01 12:33:33;;;;;;;29.08;6.90;;;21.30;67.10;;;;;;5037458;28;20575;-72
2022/09/01 12:36:23;;;;;;;33.78;7.72;;;21.30;67.20;;;;;;5037243;28;20040;-72
2022/09/01 12:38:50;;;;;;;23.02;5.68;;;21.30;67.40;;;;;;5033411;28;20513;-72
2022/09/01 12:41:36;;;;;;;32.72;7.20;;;21.30;67.70;;;;;;5037143;28;20029;-72
2022/09/01 12:44:20;;;;;;;;;;;21.30;67.50;;;;;;5037351;28;20022;-72
2022/09/01 12:46:47;;;;;;;33.58;6.47;;;21.30;67.20;;;;;;5032744;28;19917;-72
2022/09/01 12:49:25;;;;;;;29.67;6.95;;;21.30;67.50;;;;;;5039709;28;20469;-72
2022/09/01 12:52:24;;;;;;;28.00;5.93;;;21.30;67.20;;;;;;5034859;28;20119;-72
2022/09/01 12:54:54;;;;;;;25.83;6.30;;;21.40;67.30;;;;;;5034539;28;20032;-72
2022/09/01 12:57:39;;;;;;;36.38;6.95;;;21.40;67.40;;;;;;5040675;28;20531;-72
2022/09/01 13:00:11;;;;;;;25.95;7.32;;;21.40;67.30;;;;;;5035133;28;20056;-71
2022/09/01 13:02:41;;;;;;;26.98;6.40;;;21.50;67.20;;;;;;5031129;28;20029;-72
2022/09/01 13:05:23;;;;;;;27.75;7.07;;;21.50;67.00;;;;;;5032859;28;20488;-71
2022/09/01 13:07:53;;;;;;;34.50;7.25;;;21.50;66.90;;;;;;5036729;28;20037;-72
2022/09/01 13:10:22;;;;;;;32.10;6.40;;;21.40;67.10;;;;;;5034390;28;20022;-72
2022/09/01 13:12:48;;;;;;;21.58;7.20;;;21.40;67.30;;;;;;5032810;28;20163;-71